Архив погоды в Лимане

Метеограмма Лиман
Среда, 19 Июня
Время местн. Темп Ветер Видим Явления Облачность нижн/средн/верх Атм. давл. Влжн Точка росы ВНГО R Сост. почвы Tg s
Напр Скр Прв ур.ст ур.м изм
15:00 +34.6° В,Ю-В 5 - 20 км - переменная облачность 758 757 -0.7 22% +9.5° 1 км - - - -
12:00 +33.9° В,Ю-В 2 - 20 км - переменная облачность 759 758 -0.8 27% +12° 1 км - - - -
09:00 +32° Ю 1 - 20 км - переменная облачность 760 758 -0.2 28% +11.2° 1 км - - - -
06:00 +23.3° штиль 0 - 20 км - переменная облачность 760 759 +0.5 76% +18.9° 1 км - Сухая (без трещин) - -
03:00 +21.4° Ю,Ю-В 1 - 20 км - переменная облачность 759 758 -0.2 80% +17.8° 1 км - - - -
00:00 +22.6° Ю-В 1 - 20 км - ясно 760 758 -0.5 72% +17.2° более 2.5 км - - - -
Вторник, 18 Июня
Время местн. Темп Ветер Видим Явления Облачность нижн/средн/верх Атм. давл. Влжн Точка росы ВНГО R Сост. почвы Tg s
Напр Скр Прв ур.ст ур.м изм
21:00 +25.5° В,Ю-В 1 - 20 км - переменная облачность 760 759 +0.8 55% +15.7° - - - - -
18:00 +30.6° В,Ю-В 4 - 20 км - незначительная облачность 759 758 -0.1 32% +11.9° - - - - -
15:00 +33° В 4 - 20 км - переменная облачность 759 758 -0.5 27% +11.6° 1 км - - - -
12:00 +33.1° В 1 - 20 км - незначительная облачность 760 759 -0.8 24% +9.8° 1 км - - - -
09:00 +29.4° штиль 0 - 20 км - незначительная облачность 761 759 +0.1 39% +14.1° - - - - -
06:00 +20.8° З,С-З 1 - 20 км - переменная облачность 761 759 +0.6 74% +16.1° 1 км - Влажная (без луж) - -
03:00 +20.3° Ю 1 - 20 км ливневый дождь переменная облачность 760 759 -0.5 73% +15.2° 1 км - - - -
00:00 +21.8° С,С-В 1 - 20 км зарница {ливневые осадки} облачно с прояснениями 760 759 +0.5 69% +15.9° 1 км - - - -
Понедельник, 17 Июня
Время местн. Темп Ветер Видим Явления Облачность нижн/средн/верх Атм. давл. Влжн Точка росы ВНГО R Сост. почвы Tg s
Напр Скр Прв ур.ст ур.м изм
21:00 +22.5° штиль 0 - 20 км - переменная облачность 760 759 +1.3 63% +15.1° 1 км - - - -
18:00 +30° С,С-В 2 - 20 км - переменная облачность 759 757 +0.7 34% +12.5° 1 км 0 - - -
15:00 +33.2° В 4 - 20 км - переменная облачность 758 757 -0.5 26% +11.3° 1 км - - - -
12:00 +33° Ю-В 1 - 20 км - ясно 758 757 -0.4 24% +9.7° более 2.5 км - - - -
09:00 +29.9° штиль 0 - 20 км - переменная облачность 759 757 +0.4 29% +9.9° - - - - -
06:00 +21.7° Ю-В 1 - 20 км - незначительная облачность 758 757 +0.4 67% +15.4° - - Сухая (без трещин) - -
03:00 +18.7° В,Ю-В 2 - 20 км - ясно 758 757 +0.3 73% +13.8° более 2.5 км - - - -
00:00 +20.7° В,Ю-В 2 - 20 км - ясно 758 756 -0.5 54% +11.1° более 2.5 км - - - -
Воскресенье, 16 Июня
Время местн. Темп Ветер Видим Явления Облачность нижн/средн/верх Атм. давл. Влжн Точка росы ВНГО R Сост. почвы Tg s
Напр Скр Прв ур.ст ур.м изм
21:00 +24.3° Ю 2 - 20 км - ясно 758 757 +0.2 28% +4.8° более 2.5 км - - - -
18:00 +29.2° Ю,Ю-В 4 - 20 км - переменная облачность 758 757 -0.3 21% +4.5° более 2.5 км - - - -
15:00 +33.2° В,Ю-В 3 - 20 км - переменная облачность 758 757 -1 20% +6.9° более 2.5 км - - - -
12:00 +34° Ю-З 2 - 20 км - переменная облачность 759 758 -0.8 14% +2.4° более 2.5 км - - - -